LFKJLFKS

Guest
Details From LFKJ - Napoleon Bonaparte
To LFKS - Solenzara
Flight Number -
Tags decoded
Created
Modified
Stats Distance 27 nm / 50 km
Max Altitude 0 ft / 0 m
Waypoints 2
Social Downloads 1
Likes 0
Share VATSIM

Download

Looking for another format? Having issues loading an existing format? Contact us
Advertisement - Login to hide

Notes

Requested: LFKJ LFKS

Route

LFKJ LFKS

ID Type Via Altitude Latitude Longitude Leg Dist Tot Dist Heading (true) Name
O LFKJ APT - 0 ft / 0 m 41.92289˚ 8.79959˚ - 0 nm - Napoleon Bonaparte
O LFKS APT - 0 ft / 0 m 41.92462˚ 9.40532˚ 27 nm 27 nm 90° / 90° Solenzara

Altitude Profile

Advertisement - Login to hide

LFKJ

Details ICAO LFKJ (AJA)
Name Napoleon Bonaparte
Region France
Timezone Europe/Paris (UTC+1.0)
Stats Elevation 18 ft / 5 m (AMSL)
Location 41.922886° 8.799587°
Runways 2
Magnetic Variation 2.328° E

METAR

LFKJ 111700Z AUTO 17017KT 9999 OVC070/// 19/08 Q1000 TEMPO 4000 RA BECMG 18018G30KT

Decode

TAF

TAF LFKJ 111400Z 1115/1215 18018G30KT 9999 FEW020 BKN025 PROB30 TEMPO 1115/1123 4000 RA BECMG 1123/1202 16010KT BECMG 1202/1205 06006KT

Decode

Departure Runways

ID Width Length Bearing (true) Bearing (mag) Surface Threshold Offset Overrun Length
02 180 ft / 55 m 7,899 ft / 2,408 m 24.94° 22.61° Asphalt 0 ft / 0 m 164 ft / 50 m
10 98 ft / 30 m 3,447 ft / 1,051 m 94.35° 92.02° Concrete 0 ft / 0 m 164 ft / 50 m
20 180 ft / 55 m 7,899 ft / 2,408 m 204.95° 202.62° Asphalt 745 ft / 227 m 230 ft / 70 m
28 98 ft / 30 m 3,447 ft / 1,051 m 274.36° 272.03° Concrete 213 ft / 65 m 0 ft / 0 m

LFKS

Details ICAO LFKS (SOZ)
Name Solenzara
Region France
Timezone Europe/Paris (UTC+1.0)
Stats Elevation 27 ft / 8 m (AMSL)
Location 41.924616° 9.405323°
Runways 1
Magnetic Variation 2.451° E

METAR

LFKS 111700Z AUTO 18014G25KT 130V230 9999 NCD 19/06 Q0998

Decode

TAF

TAF LFKS 111400Z 1115/1215 18015G30KT 9999 BKN050 OVC150 TEMPO 1115/1120 18020G40KT BECMG 1202/1204 28010KT

Decode

Destination Runways

ID Width Length Bearing (true) Bearing (mag) Surface Threshold Offset Overrun Length
18 148 ft / 45 m 8,582 ft / 2,616 m 179.77° 177.32° Concrete 0 ft / 0 m 686 ft / 209 m
36 148 ft / 45 m 8,582 ft / 2,616 m 359.77° 357.32° Concrete 0 ft / 0 m 935 ft / 285 m

Approach Navaids

Runway Type Ident Frequency Range Bearing (true) Bearing (mag) Slope Elevation
18 Localiser SZA 109.10 MHz 27 nm / 50 km 178.95° 176.50° - 27 ft / 8 m (AMSL)
18 Glidescope SZA 109.10 MHz 27 nm / 50 km 178.95° 176.50° 2.50° 27 ft / 8 m (AMSL)

Popular Alternatives